createdAt,value
2019-06-10T00:02:08.154Z,13.60
2019-06-10T00:04:34.849Z,17.70
2019-06-10T00:07:03.755Z,16.03
2019-06-10T00:09:31.346Z,15.37
2019-06-10T00:11:58.333Z,17.30
2019-06-10T00:14:24.854Z,11.77
2019-06-10T00:16:51.619Z,11.97
2019-06-10T00:19:21.436Z,10.77
2019-06-10T00:21:47.800Z,16.43
2019-06-10T00:24:14.532Z,12.73
2019-06-10T00:26:41.620Z,12.77
2019-06-10T00:29:09.682Z,14.43
2019-06-10T00:31:37.123Z,13.87
2019-06-10T00:34:05.075Z,17.27
2019-06-10T00:36:32.525Z,18.67
2019-06-10T00:39:02.445Z,19.13
2019-06-10T00:41:28.135Z,14.63
2019-06-10T00:43:55.934Z,18.00
2019-06-10T00:46:23.839Z,14.70
2019-06-10T00:48:50.957Z,19.63
2019-06-10T00:51:17.896Z,16.13
2019-06-10T00:53:44.990Z,15.83
2019-06-10T00:56:14.009Z,16.87
2019-06-10T00:58:40.827Z,14.53
2019-06-10T01:01:07.943Z,14.93
2019-06-10T01:03:34.989Z,9.30
2019-06-10T01:06:03.069Z,14.03
2019-06-10T01:08:31.634Z,14.77
2019-06-10T01:11:03.769Z,14.70
2019-06-10T01:13:27.689Z,14.17
2019-06-10T01:15:54.960Z,14.17
2019-06-10T01:18:34.609Z,13.97
2019-06-10T01:20:51.703Z,18.30
2019-06-10T01:23:18.462Z,12.63
2019-06-10T01:25:45.077Z,12.20
2019-06-10T01:28:15.057Z,16.00
2019-06-10T01:30:41.428Z,15.17
2019-06-10T01:33:08.820Z,15.37
2019-06-10T01:35:37.079Z,15.50
2019-06-10T01:38:05.866Z,13.37
2019-06-10T01:40:32.593Z,17.83
2019-06-10T01:43:01.058Z,18.97
2019-06-10T01:45:31.100Z,15.83
2019-06-10T01:47:57.961Z,16.43
2019-06-10T01:50:25.212Z,15.90
2019-06-10T01:52:52.574Z,16.43
2019-06-10T01:55:21.656Z,19.37
2019-06-10T01:57:47.825Z,16.03
2019-06-10T02:00:20.919Z,16.07
2019-06-10T02:02:45.007Z,9.70
2019-06-10T02:05:14.548Z,19.63
2019-06-10T02:07:41.141Z,14.57
2019-06-10T02:10:11.804Z,13.73
2019-06-10T02:12:38.623Z,22.53
2019-06-10T02:15:07.821Z,14.70
2019-06-10T02:17:34.677Z,15.17
2019-06-10T02:20:02.196Z,19.07
2019-06-10T02:22:31.660Z,17.17
2019-06-10T02:25:01.106Z,18.10
2019-06-10T02:27:27.151Z,15.03
2019-06-10T02:29:54.456Z,15.77
2019-06-10T02:32:31.382Z,16.13
2019-06-10T02:35:03.721Z,15.60
2019-06-10T02:37:25.581Z,13.53
2019-06-10T02:39:53.918Z,17.53
2019-06-10T02:42:29.715Z,18.37
2019-06-10T02:44:54.023Z,9.97
2019-06-10T02:47:23.766Z,14.47
2019-06-10T02:50:01.599Z,15.07
2019-06-10T02:52:20.046Z,11.03
2019-06-10T02:54:49.359Z,15.47
2019-06-10T02:57:18.730Z,16.53
2019-06-10T02:59:46.293Z,14.47
2019-06-10T03:02:13.521Z,19.10
2019-06-10T03:04:43.353Z,16.00
2019-06-10T03:07:10.025Z,13.80
2019-06-10T03:09:36.958Z,19.53
2019-06-10T03:12:04.907Z,18.43
2019-06-10T03:14:32.882Z,20.03
2019-06-10T03:19:53.527Z,24.37
2019-06-10T03:22:22.583Z,14.87
2019-06-10T03:24:48.649Z,16.40
2019-06-10T03:27:16.417Z,19.30
2019-06-10T03:29:42.963Z,12.40
2019-06-10T03:32:09.764Z,16.20
2019-06-10T03:34:42.144Z,16.53
2019-06-10T03:37:05.202Z,15.53
2019-06-10T03:39:32.824Z,19.23
2019-06-10T03:42:02.250Z,16.87
2019-06-10T03:44:28.804Z,16.53
2019-06-10T03:46:55.576Z,13.13
2019-06-10T03:49:24.293Z,17.70
2019-06-10T03:51:52.946Z,11.77
2019-06-10T03:54:22.755Z,16.40
2019-06-10T03:56:51.986Z,20.50
2019-06-10T03:59:19.224Z,14.23
2019-06-10T04:01:46.091Z,13.77
2019-06-10T04:04:13.177Z,13.43
2019-06-10T04:06:43.923Z,11.83
2019-06-10T04:09:08.979Z,11.77
2019-06-10T04:11:35.770Z,14.93
2019-06-10T04:14:02.423Z,11.67
2019-06-10T04:16:29.225Z,15.67
2019-06-10T04:18:55.852Z,17.53
2019-06-10T04:21:23.897Z,15.40
2019-06-10T04:23:52.820Z,13.37
2019-06-10T04:26:19.756Z,13.33
2019-06-10T04:28:46.533Z,13.40
2019-06-10T04:31:13.311Z,11.93
2019-06-10T04:33:42.070Z,11.43
2019-06-10T04:36:08.585Z,10.90
2019-06-10T04:38:35.265Z,18.43
2019-06-10T04:41:03.358Z,10.67
2019-06-10T04:43:32.311Z,15.30
2019-06-10T04:45:58.541Z,16.13
2019-06-10T04:48:26.547Z,17.20
2019-06-10T04:50:53.687Z,13.60
2019-06-10T04:53:22.879Z,15.97
2019-06-10T04:55:49.262Z,9.47
2019-06-10T04:58:15.778Z,10.67
2019-06-10T05:00:42.881Z,12.83
2019-06-10T05:03:11.987Z,13.43
2019-06-10T05:05:38.196Z,11.70
2019-06-10T05:08:05.105Z,17.73
2019-06-10T05:10:33.263Z,10.67
2019-06-10T05:12:59.841Z,10.93
2019-06-10T05:15:28.492Z,9.27
2019-06-10T05:17:54.848Z,11.67
2019-06-10T05:20:25.468Z,11.77
2019-06-10T05:22:49.754Z,12.73
2019-06-10T05:25:16.496Z,8.57
2019-06-10T05:27:43.131Z,8.43
2019-06-10T05:30:12.273Z,15.10
2019-06-10T05:32:38.904Z,10.13
2019-06-10T05:35:05.724Z,9.33
2019-06-10T05:37:33.958Z,10.20
2019-06-10T05:40:02.182Z,10.33
2019-06-10T05:42:29.374Z,9.40
2019-06-10T05:44:57.159Z,11.67
2019-06-10T05:47:26.675Z,10.50
2019-06-10T05:49:52.906Z,9.27
2019-06-10T05:52:19.632Z,10.80
2019-06-10T05:54:46.696Z,12.13
2019-06-10T05:57:13.476Z,14.17
2019-06-10T05:59:40.175Z,11.93
2019-06-10T06:02:07.380Z,13.07
2019-06-10T06:04:35.915Z,10.43
2019-06-10T06:07:02.526Z,5.67
2019-06-10T06:09:29.276Z,10.93
2019-06-10T06:11:55.814Z,9.60
2019-06-10T06:14:22.703Z,11.57
2019-06-10T06:16:49.548Z,11.20
2019-06-10T06:19:16.120Z,7.70
2019-06-10T06:21:47.432Z,7.87
2019-06-10T06:24:12.891Z,13.03
2019-06-10T06:26:39.809Z,13.53
2019-06-10T06:29:06.490Z,10.20
2019-06-10T06:31:34.917Z,10.43
2019-06-10T06:34:02.994Z,8.33
2019-06-10T06:36:31.250Z,8.50
2019-06-10T06:38:58.361Z,9.17
2019-06-10T06:41:25.807Z,9.87
2019-06-10T06:43:53.196Z,9.40
2019-06-10T06:46:20.068Z,10.23
2019-06-10T06:48:46.992Z,9.60
2019-06-10T06:51:14.734Z,7.00
2019-06-10T06:53:50.943Z,10.50
2019-06-10T06:56:12.572Z,9.20
2019-06-10T06:58:40.117Z,7.70
2019-06-10T07:01:10.946Z,6.77
2019-06-10T07:03:38.211Z,9.43
2019-06-10T07:06:04.999Z,9.43
2019-06-10T07:08:33.315Z,5.43
2019-06-10T07:11:02.798Z,8.70
2019-06-10T07:13:35.413Z,10.90
2019-06-10T07:16:03.191Z,9.30
2019-06-10T07:18:32.419Z,9.53
2019-06-10T07:20:59.125Z,11.40
2019-06-10T07:23:25.745Z,10.47
2019-06-10T07:25:53.270Z,9.33
2019-06-10T07:28:19.589Z,9.33
2019-06-10T07:30:51.181Z,9.83
2019-06-10T07:33:13.833Z,12.70
2019-06-10T07:35:41.569Z,7.40
2019-06-10T07:38:08.116Z,6.17
2019-06-10T07:40:35.879Z,12.97
2019-06-10T07:43:02.494Z,11.87
2019-06-10T07:45:28.833Z,8.10
2019-06-10T07:47:55.020Z,9.57
2019-06-10T07:50:22.700Z,14.17
2019-06-10T07:52:49.480Z,7.90
2019-06-10T07:55:16.713Z,8.90
2019-06-10T07:57:45.685Z,10.50
2019-06-10T08:00:13.397Z,8.23
2019-06-10T08:02:39.839Z,13.10
2019-06-10T08:05:07.917Z,9.77
2019-06-10T08:07:35.250Z,9.80
2019-06-10T08:10:02.912Z,8.50
2019-06-10T08:12:29.282Z,10.37
2019-06-10T08:14:55.992Z,7.13
2019-06-10T08:17:22.570Z,8.10
2019-06-10T08:19:50.890Z,11.73
2019-06-10T08:22:31.119Z,8.30
2019-06-10T08:24:47.927Z,8.70
2019-06-10T08:27:15.225Z,10.23
2019-06-10T08:29:46.161Z,6.53
2019-06-10T08:32:13.137Z,10.37
2019-06-10T08:34:42.543Z,12.03
2019-06-10T08:37:09.148Z,8.87
2019-06-10T08:39:36.416Z,11.03
2019-06-10T08:42:03.559Z,13.73
2019-06-10T08:44:32.800Z,11.63
2019-06-10T08:47:00.094Z,13.47
2019-06-10T08:49:27.242Z,11.75
2019-06-10T08:51:54.677Z,12.43
2019-06-10T08:54:23.293Z,8.73
2019-06-10T08:56:50.912Z,15.57
2019-06-10T08:59:17.389Z,9.90
2019-06-10T09:01:48.363Z,7.83
2019-06-10T09:04:13.246Z,8.50
2019-06-10T09:06:41.417Z,11.40
2019-06-10T09:09:08.022Z,8.07
2019-06-10T09:11:34.460Z,11.00
2019-06-10T09:14:02.549Z,11.70
2019-06-10T09:16:32.417Z,10.60
2019-06-10T09:18:59.327Z,14.50
2019-06-10T09:21:27.005Z,12.37
2019-06-10T09:23:59.843Z,10.73
2019-06-10T09:26:23.383Z,9.73
2019-06-10T09:28:55.561Z,13.90
2019-06-10T09:31:22.977Z,10.77
2019-06-10T09:33:52.198Z,8.23
2019-06-10T09:36:17.954Z,9.93
2019-06-10T09:38:47.860Z,10.77
2019-06-10T09:41:14.297Z,8.37
2019-06-10T09:43:46.722Z,11.37
2019-06-10T09:46:12.513Z,10.77
2019-06-10T09:48:38.711Z,10.63
2019-06-10T09:51:05.049Z,10.80
2019-06-10T09:53:39.260Z,12.17
2019-06-10T09:56:03.834Z,9.40
2019-06-10T09:58:29.290Z,10.43
2019-06-10T10:00:58.049Z,8.37
2019-06-10T10:03:24.720Z,8.37
2019-06-10T10:05:59.348Z,10.57
2019-06-10T10:08:19.187Z,10.07
2019-06-10T10:10:48.013Z,8.40
2019-06-10T10:13:13.350Z,10.57
2019-06-10T10:15:39.486Z,11.00
2019-06-10T10:18:07.122Z,9.97
2019-06-10T10:20:34.128Z,13.67
2019-06-10T10:23:02.541Z,19.93
2019-06-10T10:25:29.163Z,14.67
2019-06-10T10:27:57.546Z,16.37
2019-06-10T10:30:24.774Z,13.47
2019-06-10T10:32:52.732Z,18.47
2019-06-10T10:35:19.777Z,18.70
2019-06-10T10:37:46.416Z,24.50
2019-06-10T10:40:12.777Z,23.00
2019-06-10T10:42:45.461Z,21.07
2019-06-10T10:45:07.191Z,20.80
2019-06-10T10:47:33.713Z,23.93
2019-06-10T10:50:02.741Z,26.23
2019-06-10T10:52:28.377Z,21.20
2019-06-10T10:54:55.640Z,21.83
2019-06-10T10:57:23.151Z,23.07
2019-06-10T10:59:52.458Z,23.07
2019-06-10T11:02:18.793Z,29.37
2019-06-10T11:04:49.689Z,28.30
2019-06-10T11:07:15.978Z,26.57
2019-06-10T11:09:42.853Z,35.53
2019-06-10T11:12:11.620Z,33.13
2019-06-10T11:14:38.160Z,23.50
2019-06-10T11:17:04.350Z,29.23
2019-06-10T11:19:32.336Z,23.70
2019-06-10T11:21:58.879Z,26.70
2019-06-10T11:24:36.409Z,32.70
2019-06-10T11:26:56.305Z,28.13
2019-06-10T11:29:21.056Z,34.57
2019-06-10T11:31:48.428Z,38.02
2019-06-10T11:34:14.759Z,40.63
2019-06-10T11:36:42.517Z,44.23
2019-06-10T11:39:08.878Z,50.20
2019-06-10T11:41:35.132Z,41.97
2019-06-10T11:44:01.368Z,53.30
2019-06-10T11:46:27.577Z,45.33
2019-06-10T11:48:56.854Z,40.87
2019-06-10T11:51:23.502Z,30.10
2019-06-10T11:53:49.948Z,30.20
2019-06-10T11:56:16.901Z,27.50
2019-06-10T11:58:43.601Z,31.63
2019-06-10T12:01:12.186Z,22.43
2019-06-10T12:03:37.896Z,23.57
2019-06-10T12:06:05.414Z,26.57
2019-06-10T12:08:32.868Z,27.10
2019-06-10T12:11:02.265Z,20.33
2019-06-10T12:13:27.244Z,19.27
2019-06-10T12:16:32.782Z,23.67
2019-06-10T12:18:22.977Z,25.27
2019-06-10T12:20:49.682Z,15.63
2019-06-10T12:23:15.906Z,20.97
2019-06-10T12:25:43.652Z,21.13
2019-06-10T12:28:12.732Z,17.70
2019-06-10T12:30:38.049Z,22.53
2019-06-10T12:33:05.602Z,21.10
2019-06-10T12:35:33.338Z,26.47
2019-06-10T12:38:01.850Z,21.20
2019-06-10T12:41:09.546Z,20.37
2019-06-10T12:43:32.688Z,20.27
2019-06-10T12:45:59.151Z,19.83
2019-06-10T12:48:26.733Z,16.30
2019-06-10T12:50:55.620Z,21.20
2019-06-10T12:53:22.888Z,22.30
2019-06-10T12:55:49.063Z,25.13
2019-06-10T12:58:15.320Z,21.43
2019-06-10T13:00:43.862Z,21.53
2019-06-10T13:03:12.861Z,19.67
2019-06-10T13:05:42.457Z,23.07
2019-06-10T13:08:08.482Z,22.47
2019-06-10T13:10:37.837Z,21.10
2019-06-10T13:13:07.184Z,24.27
2019-06-10T13:15:32.844Z,23.17
2019-06-10T13:18:00.284Z,20.43
2019-06-10T13:20:26.593Z,19.53
2019-06-10T13:22:52.801Z,22.90
2019-06-10T13:25:19.051Z,18.87
2019-06-10T13:27:45.668Z,20.53
2019-06-10T13:30:12.402Z,25.27
2019-06-10T13:32:38.869Z,21.77
2019-06-10T13:35:06.297Z,18.97
2019-06-10T13:37:33.496Z,16.50
2019-06-10T13:39:59.828Z,18.10
2019-06-10T13:42:26.187Z,22.13
2019-06-10T13:44:53.045Z,16.23
2019-06-10T13:47:19.387Z,22.73
2019-06-10T13:49:45.618Z,17.83
2019-06-10T13:52:16.390Z,22.17
2019-06-10T13:54:42.058Z,21.67
2019-06-10T13:57:09.769Z,19.57
2019-06-10T13:59:35.946Z,20.27
2019-06-10T14:02:06.083Z,15.77
2019-06-10T14:04:33.324Z,19.90
2019-06-10T14:06:59.055Z,17.20
2019-06-10T14:09:25.213Z,20.50
2019-06-10T14:11:51.525Z,24.07
2019-06-10T14:14:18.286Z,19.70
2019-06-10T14:16:44.654Z,19.50
2019-06-10T14:19:15.372Z,18.53
2019-06-10T14:21:38.928Z,22.13
2019-06-10T14:24:06.385Z,14.27
2019-06-10T14:26:40.601Z,16.17
2019-06-10T14:29:02.988Z,18.17
2019-06-10T14:31:42.845Z,18.47
2019-06-10T14:33:56.733Z,19.20
2019-06-10T14:36:22.951Z,16.53
2019-06-10T14:38:49.201Z,18.17
2019-06-10T14:41:15.422Z,22.00
2019-06-10T14:43:42.419Z,18.63
2019-06-10T14:46:09.124Z,19.37
2019-06-10T14:48:35.338Z,23.53
2019-06-10T14:51:03.275Z,21.03
2019-06-10T14:53:29.556Z,23.83
2019-06-10T14:55:56.812Z,22.00
2019-06-10T14:58:23.401Z,22.57
2019-06-10T15:00:49.699Z,20.77
2019-06-10T15:03:19.635Z,17.87
2019-06-10T15:05:44.127Z,22.87
2019-06-10T15:08:13.655Z,23.07
2019-06-10T15:10:38.323Z,20.53
2019-06-10T15:13:04.680Z,16.70
2019-06-10T15:15:32.917Z,19.80
2019-06-10T15:17:58.904Z,22.47
2019-06-10T15:20:25.151Z,18.57
2019-06-10T15:22:52.658Z,21.63
2019-06-10T15:25:21.382Z,16.40
2019-06-10T15:27:47.001Z,21.13
2019-06-10T15:30:22.542Z,25.73
2019-06-10T15:32:42.782Z,17.50
2019-06-10T15:35:09.175Z,17.30
2019-06-10T15:37:35.545Z,20.17
2019-06-10T15:40:03.728Z,21.70
2019-06-10T15:42:29.992Z,19.57
2019-06-10T15:44:56.239Z,23.60
2019-06-10T15:47:26.335Z,20.67
2019-06-10T15:49:52.437Z,21.80
2019-06-10T15:52:20.103Z,22.63
2019-06-10T15:54:46.601Z,22.73
2019-06-10T15:57:26.550Z,27.00
2019-06-10T15:59:42.772Z,22.60
2019-06-10T16:02:16.144Z,23.73
2019-06-10T16:04:43.212Z,21.07
2019-06-10T16:07:09.631Z,23.03
2019-06-10T16:09:35.857Z,27.67
2019-06-10T16:12:02.940Z,30.13
2019-06-10T16:14:29.343Z,27.80
2019-06-10T16:16:55.498Z,26.93
2019-06-10T16:19:21.824Z,24.67
2019-06-10T16:21:48.068Z,21.93
2019-06-10T16:24:16.824Z,26.03
2019-06-10T16:26:43.377Z,25.07
2019-06-10T16:29:12.110Z,21.47
2019-06-10T16:31:37.685Z,20.60
2019-06-10T16:34:04.405Z,21.23
2019-06-10T16:36:32.078Z,21.17
2019-06-10T16:38:58.407Z,22.27
2019-06-10T16:41:26.472Z,22.80
2019-06-10T16:43:52.683Z,23.47
2019-06-10T16:46:18.913Z,27.37
2019-06-10T16:48:45.122Z,28.03
2019-06-10T16:51:13.252Z,28.60
2019-06-10T16:53:39.312Z,28.53
2019-06-10T16:56:05.532Z,29.03
2019-06-10T16:58:33.462Z,25.67
2019-06-10T17:00:59.879Z,25.77
2019-06-10T17:03:27.259Z,27.57
2019-06-10T17:05:54.546Z,31.93
2019-06-10T17:08:24.581Z,23.73
2019-06-10T17:10:48.848Z,22.67
2019-06-10T17:13:17.168Z,24.90
2019-06-10T17:15:43.383Z,21.07
2019-06-10T17:18:09.501Z,25.10
2019-06-10T17:20:36.776Z,28.87
2019-06-10T17:23:26.206Z,25.60
2019-06-10T17:25:53.411Z,31.93
2019-06-10T17:28:24.702Z,24.20
2019-06-10T17:30:48.581Z,27.83
2019-06-10T17:33:14.891Z,24.00
2019-06-10T17:35:43.186Z,28.30
2019-06-10T17:38:09.207Z,26.30
2019-06-10T17:40:35.378Z,23.63
2019-06-10T17:43:02.410Z,27.30
2019-06-10T17:45:29.385Z,26.20
2019-06-10T17:47:56.856Z,27.13
2019-06-10T17:50:24.731Z,28.13
2019-06-10T17:52:53.377Z,26.90
2019-06-10T17:55:19.295Z,24.70
2019-06-10T17:57:47.484Z,29.57
2019-06-10T18:00:14.885Z,33.30
2019-06-10T18:02:42.571Z,29.67
2019-06-10T18:05:09.185Z,31.90
2019-06-10T18:07:35.850Z,30.17
2019-06-10T18:10:03.758Z,30.67
2019-06-10T18:12:30.013Z,30.67
2019-06-10T18:14:56.209Z,35.93
2019-06-10T18:17:23.837Z,38.43
2019-06-10T18:19:53.131Z,38.53
2019-06-10T18:22:18.410Z,30.00
2019-06-10T18:24:44.705Z,34.60
2019-06-10T18:27:12.723Z,35.03
2019-06-10T18:29:38.977Z,32.07
2019-06-10T18:32:05.145Z,26.97
2019-06-10T18:34:34.535Z,33.73
2019-06-10T18:36:59.354Z,31.73
2019-06-10T18:39:25.628Z,34.00
2019-06-10T18:41:52.901Z,33.10
2019-06-10T18:44:23.254Z,25.57
2019-06-10T18:46:47.401Z,5.93
2019-06-10T18:49:13.635Z,4.03
2019-06-10T18:51:39.952Z,4.60
2019-06-10T18:54:06.735Z,5.83
2019-06-10T18:56:35.340Z,6.37
2019-06-10T18:59:15.777Z,5.80
2019-06-10T19:01:32.074Z,5.67
2019-06-10T19:03:58.928Z,7.80
2019-06-10T19:06:25.393Z,9.03
2019-06-10T19:08:53.036Z,7.93
2019-06-10T19:11:19.666Z,6.23
2019-06-10T19:13:46.066Z,6.30
2019-06-10T19:16:13.134Z,5.23
2019-06-10T19:18:40.862Z,6.77
2019-06-10T19:21:08.882Z,4.27
2019-06-10T19:23:37.790Z,4.60
2019-06-10T19:26:03.908Z,5.17
2019-06-10T19:28:31.098Z,6.30
2019-06-10T19:30:58.946Z,7.40
2019-06-10T19:33:25.552Z,5.07
2019-06-10T19:35:52.993Z,5.40
2019-06-10T19:38:19.842Z,8.87
2019-06-10T19:40:46.322Z,8.13
2019-06-10T19:43:13.085Z,5.33
2019-06-10T19:45:39.834Z,5.37
2019-06-10T19:48:06.392Z,4.20
2019-06-10T19:50:34.488Z,6.57
2019-06-10T19:53:02.670Z,3.67
2019-06-10T19:55:29.128Z,4.43
2019-06-10T19:57:55.348Z,4.93
2019-06-10T20:00:22.252Z,3.90
2019-06-10T20:02:48.479Z,4.73
2019-06-10T20:05:16.696Z,6.00
2019-06-10T20:07:48.455Z,6.57
2019-06-10T20:10:13.228Z,4.97
2019-06-10T20:12:41.054Z,5.00
2019-06-10T20:15:23.209Z,4.37
2019-06-10T20:17:49.671Z,4.77
2019-06-10T20:20:16.393Z,4.90
2019-06-10T20:22:44.018Z,6.73
2019-06-10T20:25:12.523Z,5.73
2019-06-10T20:27:39.694Z,6.17
2019-06-10T20:30:23.458Z,7.17
2019-06-10T20:32:37.146Z,6.90
2019-06-10T20:35:07.448Z,8.13
2019-06-10T20:37:33.970Z,7.30
2019-06-10T20:40:03.343Z,11.50
2019-06-10T20:42:28.662Z,8.80
2019-06-10T20:44:55.115Z,10.83
2019-06-10T20:47:23.050Z,11.30
2019-06-10T20:49:53.466Z,10.47
2019-06-10T20:52:18.451Z,9.93
2019-06-10T20:54:47.823Z,10.60
2019-06-10T20:57:13.317Z,10.87
2019-06-10T20:59:43.712Z,13.03
2019-06-10T21:02:08.400Z,13.23
2019-06-10T21:04:34.911Z,11.60
2019-06-10T21:07:02.473Z,14.00
2019-06-10T21:09:32.708Z,11.73
2019-06-10T21:11:59.331Z,11.67
2019-06-10T21:14:25.885Z,14.33
2019-06-10T21:16:53.507Z,12.23
2019-06-10T21:19:19.982Z,13.57
2019-06-10T21:21:48.633Z,13.17
2019-06-10T21:24:15.258Z,11.30
2019-06-10T21:26:43.921Z,15.10
2019-06-10T21:29:09.896Z,11.07
2019-06-10T21:31:36.578Z,15.33
2019-06-10T21:34:03.118Z,13.33
2019-06-10T21:36:32.054Z,13.63
2019-06-10T21:38:58.282Z,17.37
2019-06-10T21:41:24.717Z,15.60
2019-06-10T21:43:57.573Z,15.30
2019-06-10T21:46:19.516Z,9.97
2019-06-10T21:48:47.383Z,9.77
2019-06-10T21:51:14.291Z,12.10
2019-06-10T21:53:42.348Z,9.20
2019-06-10T21:56:08.910Z,11.63
2019-06-10T21:58:35.878Z,10.33
2019-06-10T22:01:12.473Z,10.83
2019-06-10T22:03:32.275Z,8.47
2019-06-10T22:05:58.891Z,7.80
2019-06-10T22:08:25.202Z,6.83
2019-06-10T22:10:54.660Z,6.43
2019-06-10T22:13:22.327Z,6.40
2019-06-10T22:15:48.447Z,6.13
2019-06-10T22:18:14.909Z,7.97
2019-06-10T22:20:42.919Z,6.87
2019-06-10T22:23:09.743Z,11.40
2019-06-10T22:25:36.168Z,6.03
2019-06-10T22:28:02.927Z,7.57
2019-06-10T22:30:31.939Z,5.80
2019-06-10T22:32:58.209Z,6.83
2019-06-10T22:35:24.559Z,9.03
2019-06-10T22:37:52.601Z,4.67
2019-06-10T22:40:18.802Z,7.97
2019-06-10T22:42:44.977Z,8.63
2019-06-10T22:45:13.157Z,3.13
2019-06-10T22:47:39.327Z,5.77
2019-06-10T22:50:07.690Z,7.20
2019-06-10T22:52:33.946Z,4.37
2019-06-10T22:55:01.115Z,5.57
2019-06-10T22:57:28.228Z,5.03
2019-06-10T22:59:56.276Z,4.30
2019-06-10T23:02:22.940Z,6.67
2019-06-10T23:04:49.369Z,3.53
2019-06-10T23:07:15.581Z,5.20
2019-06-10T23:09:42.856Z,5.10
2019-06-10T23:12:09.188Z,6.43
2019-06-10T23:14:35.501Z,7.17
2019-06-10T23:17:03.026Z,3.53
2019-06-10T23:19:29.550Z,5.33
2019-06-10T23:21:56.939Z,3.43
2019-06-10T23:24:23.683Z,5.73
2019-06-10T23:26:50.051Z,7.40
2019-06-10T23:29:16.257Z,3.50
2019-06-10T23:31:52.223Z,7.57
2019-06-10T23:34:11.648Z,8.40
2019-06-10T23:36:38.561Z,4.20
2019-06-10T23:39:04.975Z,4.03
2019-06-10T23:41:32.904Z,4.47
2019-06-10T23:43:59.211Z,4.83
2019-06-10T23:46:25.376Z,6.00
2019-06-10T23:48:51.666Z,5.10
2019-06-10T23:51:17.800Z,4.27
2019-06-10T23:53:44.018Z,4.63
2019-06-10T23:56:12.679Z,7.20
2019-06-10T23:58:38.393Z,8.60
